sensor_id;sensor_type;location;lat;lon;timestamp;P1;durP1;ratioP1;P2;durP2;ratioP2
20671;SDS011;10495;50.922;4.760;2023-01-08T00:01:48;2.73;;;2.40;;
20671;SDS011;10495;50.922;4.760;2023-01-08T00:04:14;3.70;;;2.30;;
20671;SDS011;10495;50.922;4.760;2023-01-08T00:06:42;3.40;;;2.50;;
20671;SDS011;10495;50.922;4.760;2023-01-08T00:09:08;5.70;;;2.80;;
20671;SDS011;10495;50.922;4.760;2023-01-08T00:11:34;6.10;;;3.20;;
20671;SDS011;10495;50.922;4.760;2023-01-08T00:14:00;5.10;;;2.87;;
20671;SDS011;10495;50.922;4.760;2023-01-08T00:16:26;5.97;;;2.90;;
20671;SDS011;10495;50.922;4.760;2023-01-08T00:18:52;6.67;;;3.07;;
20671;SDS011;10495;50.922;4.760;2023-01-08T00:21:17;5.10;;;2.80;;
20671;SDS011;10495;50.922;4.760;2023-01-08T00:23:43;5.20;;;2.33;;
20671;SDS011;10495;50.922;4.760;2023-01-08T00:26:09;5.10;;;3.13;;
20671;SDS011;10495;50.922;4.760;2023-01-08T00:28:35;4.97;;;2.83;;
20671;SDS011;10495;50.922;4.760;2023-01-08T00:31:02;4.20;;;2.80;;
20671;SDS011;10495;50.922;4.760;2023-01-08T00:33:28;4.43;;;3.30;;
20671;SDS011;10495;50.922;4.760;2023-01-08T00:35:53;5.53;;;2.73;;
20671;SDS011;10495;50.922;4.760;2023-01-08T00:38:19;3.77;;;2.40;;
20671;SDS011;10495;50.922;4.760;2023-01-08T00:40:48;4.27;;;2.73;;
20671;SDS011;10495;50.922;4.760;2023-01-08T00:43:14;3.33;;;2.50;;
20671;SDS011;10495;50.922;4.760;2023-01-08T00:45:40;6.73;;;3.03;;
20671;SDS011;10495;50.922;4.760;2023-01-08T00:48:06;5.93;;;2.67;;
20671;SDS011;10495;50.922;4.760;2023-01-08T00:50:32;4.23;;;2.73;;
20671;SDS011;10495;50.922;4.760;2023-01-08T00:52:57;7.03;;;2.87;;
20671;SDS011;10495;50.922;4.760;2023-01-08T00:55:23;4.47;;;2.70;;
20671;SDS011;10495;50.922;4.760;2023-01-08T00:57:48;5.43;;;2.87;;
20671;SDS011;10495;50.922;4.760;2023-01-08T01:00:14;3.67;;;2.80;;
20671;SDS011;10495;50.922;4.760;2023-01-08T01:02:41;3.60;;;2.53;;
20671;SDS011;10495;50.922;4.760;2023-01-08T01:05:07;5.23;;;2.43;;
20671;SDS011;10495;50.922;4.760;2023-01-08T01:07:34;1.70;;;1.43;;
20671;SDS011;10495;50.922;4.760;2023-01-08T01:09:59;2.70;;;1.70;;
20671;SDS011;10495;50.922;4.760;2023-01-08T01:12:25;1.60;;;1.10;;
20671;SDS011;10495;50.922;4.760;2023-01-08T01:14:50;2.23;;;1.20;;
20671;SDS011;10495;50.922;4.760;2023-01-08T01:17:16;2.43;;;0.60;;
20671;SDS011;10495;50.922;4.760;2023-01-08T01:19:42;1.97;;;0.70;;
20671;SDS011;10495;50.922;4.760;2023-01-08T01:22:07;2.30;;;0.73;;
20671;SDS011;10495;50.922;4.760;2023-01-08T01:24:33;1.43;;;0.60;;
20671;SDS011;10495;50.922;4.760;2023-01-08T01:26:59;1.83;;;0.93;;
20671;SDS011;10495;50.922;4.760;2023-01-08T01:29:24;2.43;;;0.87;;
20671;SDS011;10495;50.922;4.760;2023-01-08T01:31:50;3.57;;;0.77;;
20671;SDS011;10495;50.922;4.760;2023-01-08T01:34:16;3.23;;;0.90;;
20671;SDS011;10495;50.922;4.760;2023-01-08T01:36:41;2.87;;;1.10;;
20671;SDS011;10495;50.922;4.760;2023-01-08T01:39:07;1.43;;;0.80;;
20671;SDS011;10495;50.922;4.760;2023-01-08T01:41:39;1.37;;;0.80;;
20671;SDS011;10495;50.922;4.760;2023-01-08T01:47:02;4.30;;;1.13;;
20671;SDS011;10495;50.922;4.760;2023-01-08T01:49:34;3.80;;;0.93;;
20671;SDS011;10495;50.922;4.760;2023-01-08T01:52:00;4.33;;;1.03;;
20671;SDS011;10495;50.922;4.760;2023-01-08T01:54:29;6.70;;;1.43;;
20671;SDS011;10495;50.922;4.760;2023-01-08T01:56:56;3.63;;;1.03;;
20671;SDS011;10495;50.922;4.760;2023-01-08T01:59:23;3.30;;;1.00;;
20671;SDS011;10495;50.922;4.760;2023-01-08T02:01:49;3.40;;;1.07;;
20671;SDS011;10495;50.922;4.760;2023-01-08T02:04:15;1.37;;;0.77;;
20671;SDS011;10495;50.922;4.760;2023-01-08T02:09:37;3.23;;;0.90;;
20671;SDS011;10495;50.922;4.760;2023-01-08T02:12:09;5.67;;;1.23;;
20671;SDS011;10495;50.922;4.760;2023-01-08T02:28:37;2.03;;;1.00;;
20671;SDS011;10495;50.922;4.760;2023-01-08T02:31:08;3.97;;;0.83;;
20671;SDS011;10495;50.922;4.760;2023-01-08T02:33:36;3.20;;;1.40;;
20671;SDS011;10495;50.922;4.760;2023-01-08T02:38:38;4.83;;;1.17;;
20671;SDS011;10495;50.922;4.760;2023-01-08T02:41:14;4.87;;;1.40;;
20671;SDS011;10495;50.922;4.760;2023-01-08T02:43:42;3.13;;;1.50;;
20671;SDS011;10495;50.922;4.760;2023-01-08T02:46:13;4.33;;;1.43;;
20671;SDS011;10495;50.922;4.760;2023-01-08T02:49:16;4.37;;;1.63;;
20671;SDS011;10495;50.922;4.760;2023-01-08T02:51:38;2.43;;;1.50;;
20671;SDS011;10495;50.922;4.760;2023-01-08T02:54:10;3.60;;;1.53;;
20671;SDS011;10495;50.922;4.760;2023-01-08T02:56:43;4.10;;;1.50;;
20671;SDS011;10495;50.922;4.760;2023-01-08T02:59:13;4.60;;;1.73;;
20671;SDS011;10495;50.922;4.760;2023-01-08T03:01:40;3.40;;;1.90;;
20671;SDS011;10495;50.922;4.760;2023-01-08T03:04:09;4.73;;;1.80;;
20671;SDS011;10495;50.922;4.760;2023-01-08T03:06:39;2.80;;;1.63;;
20671;SDS011;10495;50.922;4.760;2023-01-08T03:09:05;1.77;;;1.20;;
20671;SDS011;10495;50.922;4.760;2023-01-08T03:11:36;2.40;;;1.50;;
20671;SDS011;10495;50.922;4.760;2023-01-08T03:14:18;3.53;;;1.60;;
20671;SDS011;10495;50.922;4.760;2023-01-08T03:17:06;2.80;;;1.93;;
20671;SDS011;10495;50.922;4.760;2023-01-08T03:19:47;5.77;;;1.70;;
20671;SDS011;10495;50.922;4.760;2023-01-08T03:22:16;4.03;;;2.40;;
20671;SDS011;10495;50.922;4.760;2023-01-08T03:24:43;3.47;;;2.00;;
20671;SDS011;10495;50.922;4.760;2023-01-08T03:27:13;3.93;;;1.93;;
20671;SDS011;10495;50.922;4.760;2023-01-08T03:29:42;2.63;;;1.60;;
20671;SDS011;10495;50.922;4.760;2023-01-08T03:32:10;5.20;;;1.80;;
20671;SDS011;10495;50.922;4.760;2023-01-08T03:34:39;4.53;;;1.70;;
20671;SDS011;10495;50.922;4.760;2023-01-08T03:37:07;2.83;;;1.60;;
20671;SDS011;10495;50.922;4.760;2023-01-08T03:42:22;2.67;;;1.13;;
20671;SDS011;10495;50.922;4.760;2023-01-08T03:44:48;4.50;;;1.40;;
20671;SDS011;10495;50.922;4.760;2023-01-08T03:47:15;2.33;;;1.20;;
20671;SDS011;10495;50.922;4.760;2023-01-08T03:49:41;5.37;;;1.23;;
20671;SDS011;10495;50.922;4.760;2023-01-08T03:52:08;2.43;;;0.90;;
20671;SDS011;10495;50.922;4.760;2023-01-08T03:54:44;2.10;;;0.93;;
20671;SDS011;10495;50.922;4.760;2023-01-08T03:57:09;3.83;;;0.87;;
20671;SDS011;10495;50.922;4.760;2023-01-08T03:59:35;1.97;;;0.90;;
20671;SDS011;10495;50.922;4.760;2023-01-08T04:02:01;2.27;;;0.90;;
20671;SDS011;10495;50.922;4.760;2023-01-08T04:04:26;2.43;;;1.10;;
20671;SDS011;10495;50.922;4.760;2023-01-08T04:06:52;1.83;;;0.90;;
20671;SDS011;10495;50.922;4.760;2023-01-08T04:09:17;2.93;;;0.80;;
20671;SDS011;10495;50.922;4.760;2023-01-08T04:11:43;1.10;;;0.77;;
20671;SDS011;10495;50.922;4.760;2023-01-08T04:14:08;2.63;;;0.97;;
20671;SDS011;10495;50.922;4.760;2023-01-08T04:16:36;1.70;;;0.70;;
20671;SDS011;10495;50.922;4.760;2023-01-08T04:19:02;2.50;;;1.00;;
20671;SDS011;10495;50.922;4.760;2023-01-08T04:21:27;4.63;;;0.90;;
20671;SDS011;10495;50.922;4.760;2023-01-08T04:23:53;4.57;;;0.90;;
20671;SDS011;10495;50.922;4.760;2023-01-08T04:26:19;3.50;;;0.80;;
20671;SDS011;10495;50.922;4.760;2023-01-08T04:28:45;3.07;;;1.17;;
20671;SDS011;10495;50.922;4.760;2023-01-08T04:31:10;3.50;;;0.90;;
20671;SDS011;10495;50.922;4.760;2023-01-08T04:33:36;7.73;;;1.20;;
20671;SDS011;10495;50.922;4.760;2023-01-08T04:36:02;4.63;;;1.50;;
20671;SDS011;10495;50.922;4.760;2023-01-08T04:38:28;4.20;;;1.33;;
20671;SDS011;10495;50.922;4.760;2023-01-08T04:40:57;4.37;;;1.10;;
20671;SDS011;10495;50.922;4.760;2023-01-08T04:43:27;4.17;;;1.37;;
20671;SDS011;10495;50.922;4.760;2023-01-08T04:45:56;6.13;;;1.43;;
20671;SDS011;10495;50.922;4.760;2023-01-08T04:48:23;1.10;;;0.80;;
20671;SDS011;10495;50.922;4.760;2023-01-08T04:50:48;1.93;;;0.80;;
20671;SDS011;10495;50.922;4.760;2023-01-08T04:53:15;3.43;;;1.20;;
20671;SDS011;10495;50.922;4.760;2023-01-08T04:55:41;2.63;;;1.20;;
20671;SDS011;10495;50.922;4.760;2023-01-08T04:58:06;1.13;;;0.77;;
20671;SDS011;10495;50.922;4.760;2023-01-08T05:00:32;4.60;;;0.90;;
20671;SDS011;10495;50.922;4.760;2023-01-08T05:02:58;1.70;;;0.60;;
20671;SDS011;10495;50.922;4.760;2023-01-08T05:05:24;4.83;;;1.17;;
20671;SDS011;10495;50.922;4.760;2023-01-08T05:07:49;4.27;;;1.17;;
20671;SDS011;10495;50.922;4.760;2023-01-08T05:10:15;2.47;;;1.20;;
20671;SDS011;10495;50.922;4.760;2023-01-08T05:12:40;4.63;;;1.07;;
20671;SDS011;10495;50.922;4.760;2023-01-08T05:15:06;8.73;;;1.80;;
20671;SDS011;10495;50.922;4.760;2023-01-08T05:17:33;4.63;;;1.00;;
20671;SDS011;10495;50.922;4.760;2023-01-08T05:19:58;4.10;;;1.50;;
20671;SDS011;10495;50.922;4.760;2023-01-08T05:22:24;7.17;;;1.60;;
20671;SDS011;10495;50.922;4.760;2023-01-08T05:24:50;5.93;;;1.67;;
20671;SDS011;10495;50.922;4.760;2023-01-08T05:27:15;5.13;;;1.30;;
20671;SDS011;10495;50.922;4.760;2023-01-08T05:29:41;5.27;;;1.50;;
20671;SDS011;10495;50.922;4.760;2023-01-08T05:32:13;4.47;;;1.43;;
20671;SDS011;10495;50.922;4.760;2023-01-08T05:34:40;2.77;;;1.07;;
20671;SDS011;10495;50.922;4.760;2023-01-08T05:37:06;8.13;;;1.20;;
20671;SDS011;10495;50.922;4.760;2023-01-08T05:39:31;2.30;;;0.90;;
20671;SDS011;10495;50.922;4.760;2023-01-08T05:41:57;2.67;;;1.30;;
20671;SDS011;10495;50.922;4.760;2023-01-08T05:44:23;7.53;;;1.23;;
20671;SDS011;10495;50.922;4.760;2023-01-08T05:46:48;4.07;;;1.23;;
20671;SDS011;10495;50.922;4.760;2023-01-08T05:49:14;4.13;;;1.00;;
20671;SDS011;10495;50.922;4.760;2023-01-08T05:51:39;5.10;;;1.03;;
20671;SDS011;10495;50.922;4.760;2023-01-08T05:54:05;6.00;;;1.83;;
20671;SDS011;10495;50.922;4.760;2023-01-08T05:56:30;5.50;;;1.10;;
20671;SDS011;10495;50.922;4.760;2023-01-08T05:58:56;4.13;;;0.97;;
20671;SDS011;10495;50.922;4.760;2023-01-08T06:01:21;2.30;;;0.70;;
20671;SDS011;10495;50.922;4.760;2023-01-08T06:03:47;4.07;;;1.23;;
20671;SDS011;10495;50.922;4.760;2023-01-08T06:06:13;6.30;;;1.23;;
20671;SDS011;10495;50.922;4.760;2023-01-08T06:08:39;7.43;;;1.67;;
20671;SDS011;10495;50.922;4.760;2023-01-08T06:11:06;5.93;;;1.20;;
20671;SDS011;10495;50.922;4.760;2023-01-08T06:13:33;4.30;;;1.53;;
20671;SDS011;10495;50.922;4.760;2023-01-08T06:16:01;6.27;;;1.60;;
20671;SDS011;10495;50.922;4.760;2023-01-08T06:18:27;4.93;;;1.20;;
20671;SDS011;10495;50.922;4.760;2023-01-08T06:20:53;5.37;;;1.10;;
20671;SDS011;10495;50.922;4.760;2023-01-08T06:23:19;8.93;;;1.67;;
20671;SDS011;10495;50.922;4.760;2023-01-08T06:25:50;3.53;;;1.03;;
20671;SDS011;10495;50.922;4.760;2023-01-08T06:28:20;4.67;;;1.17;;
20671;SDS011;10495;50.922;4.760;2023-01-08T06:30:46;2.93;;;1.30;;
20671;SDS011;10495;50.922;4.760;2023-01-08T06:33:12;6.93;;;1.90;;
20671;SDS011;10495;50.922;4.760;2023-01-08T06:35:37;7.43;;;2.57;;
20671;SDS011;10495;50.922;4.760;2023-01-08T06:38:03;3.80;;;1.20;;
20671;SDS011;10495;50.922;4.760;2023-01-08T06:40:29;6.43;;;1.63;;
20671;SDS011;10495;50.922;4.760;2023-01-08T06:42:54;5.37;;;1.53;;
20671;SDS011;10495;50.922;4.760;2023-01-08T06:45:20;4.27;;;1.13;;
20671;SDS011;10495;50.922;4.760;2023-01-08T06:47:45;8.03;;;1.70;;
20671;SDS011;10495;50.922;4.760;2023-01-08T06:50:11;7.90;;;1.20;;
20671;SDS011;10495;50.922;4.760;2023-01-08T06:52:37;5.17;;;1.67;;
20671;SDS011;10495;50.922;4.760;2023-01-08T06:55:03;4.47;;;1.30;;
20671;SDS011;10495;50.922;4.760;2023-01-08T06:57:30;5.30;;;1.00;;
20671;SDS011;10495;50.922;4.760;2023-01-08T06:59:55;4.83;;;1.27;;
20671;SDS011;10495;50.922;4.760;2023-01-08T07:02:21;6.77;;;1.83;;
20671;SDS011;10495;50.922;4.760;2023-01-08T07:04:46;7.40;;;1.70;;
20671;SDS011;10495;50.922;4.760;2023-01-08T07:07:12;5.20;;;1.40;;
20671;SDS011;10495;50.922;4.760;2023-01-08T07:09:40;5.63;;;1.27;;
20671;SDS011;10495;50.922;4.760;2023-01-08T07:12:09;9.83;;;1.50;;
20671;SDS011;10495;50.922;4.760;2023-01-08T07:14:38;5.10;;;1.60;;
20671;SDS011;10495;50.922;4.760;2023-01-08T07:17:04;3.40;;;1.07;;
20671;SDS011;10495;50.922;4.760;2023-01-08T07:19:30;4.30;;;1.10;;
20671;SDS011;10495;50.922;4.760;2023-01-08T07:21:55;5.27;;;1.97;;
20671;SDS011;10495;50.922;4.760;2023-01-08T07:24:21;6.50;;;1.20;;
20671;SDS011;10495;50.922;4.760;2023-01-08T07:26:46;7.60;;;1.37;;
20671;SDS011;10495;50.922;4.760;2023-01-08T07:29:12;5.87;;;1.63;;
20671;SDS011;10495;50.922;4.760;2023-01-08T07:31:38;2.90;;;1.20;;
20671;SDS011;10495;50.922;4.760;2023-01-08T07:34:03;6.77;;;1.40;;
20671;SDS011;10495;50.922;4.760;2023-01-08T07:36:29;3.47;;;1.27;;
20671;SDS011;10495;50.922;4.760;2023-01-08T07:38:54;6.23;;;1.70;;
20671;SDS011;10495;50.922;4.760;2023-01-08T07:41:20;5.67;;;1.90;;
20671;SDS011;10495;50.922;4.760;2023-01-08T07:43:46;5.87;;;1.30;;
20671;SDS011;10495;50.922;4.760;2023-01-08T07:46:12;4.43;;;1.40;;
20671;SDS011;10495;50.922;4.760;2023-01-08T07:48:38;4.77;;;1.40;;
20671;SDS011;10495;50.922;4.760;2023-01-08T07:51:04;5.70;;;1.63;;
20671;SDS011;10495;50.922;4.760;2023-01-08T07:53:31;6.90;;;1.70;;
20671;SDS011;10495;50.922;4.760;2023-01-08T07:56:00;4.03;;;1.87;;
20671;SDS011;10495;50.922;4.760;2023-01-08T07:58:31;6.97;;;1.50;;
20671;SDS011;10495;50.922;4.760;2023-01-08T08:00:57;6.77;;;1.80;;
20671;SDS011;10495;50.922;4.760;2023-01-08T08:03:23;4.27;;;1.93;;
20671;SDS011;10495;50.922;4.760;2023-01-08T08:05:49;8.93;;;2.17;;
20671;SDS011;10495;50.922;4.760;2023-01-08T08:08:15;8.13;;;1.47;;
20671;SDS011;10495;50.922;4.760;2023-01-08T08:10:41;4.00;;;1.47;;
20671;SDS011;10495;50.922;4.760;2023-01-08T08:13:07;6.43;;;2.00;;
20671;SDS011;10495;50.922;4.760;2023-01-08T08:15:34;4.97;;;1.30;;
20671;SDS011;10495;50.922;4.760;2023-01-08T08:18:01;7.57;;;2.30;;
20671;SDS011;10495;50.922;4.760;2023-01-08T08:20:27;8.50;;;2.03;;
20671;SDS011;10495;50.922;4.760;2023-01-08T08:22:58;5.00;;;1.60;;
20671;SDS011;10495;50.922;4.760;2023-01-08T08:25:25;4.50;;;1.40;;
20671;SDS011;10495;50.922;4.760;2023-01-08T08:27:51;10.90;;;2.40;;
20671;SDS011;10495;50.922;4.760;2023-01-08T08:30:19;7.00;;;2.57;;
20671;SDS011;10495;50.922;4.760;2023-01-08T08:32:45;7.60;;;3.43;;
20671;SDS011;10495;50.922;4.760;2023-01-08T08:35:11;7.07;;;4.33;;
20671;SDS011;10495;50.922;4.760;2023-01-08T08:37:36;7.63;;;3.00;;
20671;SDS011;10495;50.922;4.760;2023-01-08T08:40:02;7.00;;;2.37;;
20671;SDS011;10495;50.922;4.760;2023-01-08T08:42:27;9.50;;;2.10;;
20671;SDS011;10495;50.922;4.760;2023-01-08T08:44:53;5.30;;;1.87;;
20671;SDS011;10495;50.922;4.760;2023-01-08T08:47:18;5.70;;;2.33;;
20671;SDS011;10495;50.922;4.760;2023-01-08T08:49:44;4.23;;;1.80;;
20671;SDS011;10495;50.922;4.760;2023-01-08T08:52:10;5.80;;;2.07;;
20671;SDS011;10495;50.922;4.760;2023-01-08T08:54:35;4.47;;;2.00;;
20671;SDS011;10495;50.922;4.760;2023-01-08T08:57:05;5.20;;;2.00;;
20671;SDS011;10495;50.922;4.760;2023-01-08T08:59:33;5.70;;;1.77;;
20671;SDS011;10495;50.922;4.760;2023-01-08T09:01:59;11.27;;;3.43;;
20671;SDS011;10495;50.922;4.760;2023-01-08T09:04:28;7.30;;;1.70;;
20671;SDS011;10495;50.922;4.760;2023-01-08T09:06:55;5.40;;;1.53;;
20671;SDS011;10495;50.922;4.760;2023-01-08T09:09:20;2.27;;;1.20;;
20671;SDS011;10495;50.922;4.760;2023-01-08T09:11:46;3.93;;;1.47;;
20671;SDS011;10495;50.922;4.760;2023-01-08T09:14:11;3.60;;;1.40;;
20671;SDS011;10495;50.922;4.760;2023-01-08T09:16:37;2.70;;;1.10;;
20671;SDS011;10495;50.922;4.760;2023-01-08T09:19:03;1.40;;;0.70;;
20671;SDS011;10495;50.922;4.760;2023-01-08T09:21:29;1.57;;;0.87;;
20671;SDS011;10495;50.922;4.760;2023-01-08T09:23:55;2.30;;;0.90;;
20671;SDS011;10495;50.922;4.760;2023-01-08T09:26:20;3.00;;;1.10;;
20671;SDS011;10495;50.922;4.760;2023-01-08T09:28:46;1.20;;;1.00;;
20671;SDS011;10495;50.922;4.760;2023-01-08T09:31:12;1.53;;;0.90;;
20671;SDS011;10495;50.922;4.760;2023-01-08T09:33:37;1.50;;;0.80;;
20671;SDS011;10495;50.922;4.760;2023-01-08T09:36:03;1.03;;;0.60;;
20671;SDS011;10495;50.922;4.760;2023-01-08T09:38:29;1.53;;;0.97;;
20671;SDS011;10495;50.922;4.760;2023-01-08T09:41:03;0.80;;;0.80;;
20671;SDS011;10495;50.922;4.760;2023-01-08T09:43:35;1.93;;;1.83;;
20671;SDS011;10495;50.922;4.760;2023-01-08T09:46:03;1.83;;;0.53;;
20671;SDS011;10495;50.922;4.760;2023-01-08T09:48:32;1.10;;;0.80;;
20671;SDS011;10495;50.922;4.760;2023-01-08T09:51:00;2.33;;;1.07;;
20671;SDS011;10495;50.922;4.760;2023-01-08T09:53:26;0.70;;;0.60;;
20671;SDS011;10495;50.922;4.760;2023-01-08T09:56:34;2.77;;;1.23;;
20671;SDS011;10495;50.922;4.760;2023-01-08T09:58:58;0.73;;;0.57;;
20671;SDS011;10495;50.922;4.760;2023-01-08T10:01:27;0.67;;;0.50;;
20671;SDS011;10495;50.922;4.760;2023-01-08T10:06:41;3.13;;;0.90;;
20671;SDS011;10495;50.922;4.760;2023-01-08T10:09:25;1.30;;;0.80;;
20671;SDS011;10495;50.922;4.760;2023-01-08T10:11:53;1.80;;;0.67;;
20671;SDS011;10495;50.922;4.760;2023-01-08T10:14:22;0.70;;;0.70;;
20671;SDS011;10495;50.922;4.760;2023-01-08T10:16:52;2.17;;;1.20;;
20671;SDS011;10495;50.922;4.760;2023-01-08T10:19:22;1.90;;;0.90;;
20671;SDS011;10495;50.922;4.760;2023-01-08T10:21:48;0.90;;;0.67;;
20671;SDS011;10495;50.922;4.760;2023-01-08T10:24:15;1.13;;;1.03;;
20671;SDS011;10495;50.922;4.760;2023-01-08T10:26:40;2.93;;;1.07;;
20671;SDS011;10495;50.922;4.760;2023-01-08T10:29:13;2.13;;;0.77;;
20671;SDS011;10495;50.922;4.760;2023-01-08T10:31:52;5.27;;;1.27;;
20671;SDS011;10495;50.922;4.760;2023-01-08T10:34:38;7.27;;;1.63;;
20671;SDS011;10495;50.922;4.760;2023-01-08T10:37:14;2.57;;;1.00;;
20671;SDS011;10495;50.922;4.760;2023-01-08T10:39:45;1.37;;;0.80;;
20671;SDS011;10495;50.922;4.760;2023-01-08T10:42:12;0.77;;;0.70;;
20671;SDS011;10495;50.922;4.760;2023-01-08T10:44:45;3.03;;;1.27;;
20671;SDS011;10495;50.922;4.760;2023-01-08T10:47:39;4.23;;;1.07;;
20671;SDS011;10495;50.922;4.760;2023-01-08T10:50:16;3.60;;;1.00;;
20671;SDS011;10495;50.922;4.760;2023-01-08T10:52:53;3.10;;;1.13;;
20671;SDS011;10495;50.922;4.760;2023-01-08T10:57:55;2.43;;;1.20;;
20671;SDS011;10495;50.922;4.760;2023-01-08T11:00:26;1.57;;;0.97;;
20671;SDS011;10495;50.922;4.760;2023-01-08T11:03:03;3.83;;;1.40;;
20671;SDS011;10495;50.922;4.760;2023-01-08T11:05:31;5.13;;;0.93;;
20671;SDS011;10495;50.922;4.760;2023-01-08T11:08:02;3.27;;;1.10;;
20671;SDS011;10495;50.922;4.760;2023-01-08T11:10:31;3.97;;;1.30;;
20671;SDS011;10495;50.922;4.760;2023-01-08T11:12:59;4.40;;;1.27;;
20671;SDS011;10495;50.922;4.760;2023-01-08T11:15:32;5.30;;;1.60;;
20671;SDS011;10495;50.922;4.760;2023-01-08T11:18:44;3.07;;;0.97;;
20671;SDS011;10495;50.922;4.760;2023-01-08T11:20:51;6.27;;;0.97;;
20671;SDS011;10495;50.922;4.760;2023-01-08T11:23:19;1.43;;;1.10;;
20671;SDS011;10495;50.922;4.760;2023-01-08T11:28:23;2.73;;;1.20;;
20671;SDS011;10495;50.922;4.760;2023-01-08T11:31:01;1.73;;;1.00;;
20671;SDS011;10495;50.922;4.760;2023-01-08T11:33:32;1.97;;;1.23;;
20671;SDS011;10495;50.922;4.760;2023-01-08T11:38:37;4.37;;;1.27;;
20671;SDS011;10495;50.922;4.760;2023-01-08T11:57:30;6.17;;;1.20;;
20671;SDS011;10495;50.922;4.760;2023-01-08T12:00:10;6.60;;;1.50;;
20671;SDS011;10495;50.922;4.760;2023-01-08T12:02:59;2.50;;;1.20;;
20671;SDS011;10495;50.922;4.760;2023-01-08T12:05:40;2.40;;;0.90;;
20671;SDS011;10495;50.922;4.760;2023-01-08T12:08:28;2.63;;;0.80;;
20671;SDS011;10495;50.922;4.760;2023-01-08T12:21:31;2.97;;;1.43;;
20671;SDS011;10495;50.922;4.760;2023-01-08T12:29:28;4.80;;;1.47;;
20671;SDS011;10495;50.922;4.760;2023-01-08T12:32:18;4.77;;;1.20;;
20671;SDS011;10495;50.922;4.760;2023-01-08T12:35:03;3.40;;;1.20;;
20671;SDS011;10495;50.922;4.760;2023-01-08T12:37:46;1.63;;;1.00;;
20671;SDS011;10495;50.922;4.760;2023-01-08T12:40:23;2.40;;;1.00;;
20671;SDS011;10495;50.922;4.760;2023-01-08T12:42:51;7.57;;;1.17;;
20671;SDS011;10495;50.922;4.760;2023-01-08T12:45:19;5.43;;;1.33;;
20671;SDS011;10495;50.922;4.760;2023-01-08T12:47:54;5.97;;;1.53;;
20671;SDS011;10495;50.922;4.760;2023-01-08T12:50:33;5.17;;;1.80;;
20671;SDS011;10495;50.922;4.760;2023-01-08T12:53:13;4.30;;;1.30;;
20671;SDS011;10495;50.922;4.760;2023-01-08T12:55:47;4.50;;;1.23;;
20671;SDS011;10495;50.922;4.760;2023-01-08T12:58:18;2.20;;;1.10;;
20671;SDS011;10495;50.922;4.760;2023-01-08T13:01:26;3.13;;;0.80;;
20671;SDS011;10495;50.922;4.760;2023-01-08T13:04:02;1.60;;;1.00;;
20671;SDS011;10495;50.922;4.760;2023-01-08T13:06:29;3.23;;;1.30;;
20671;SDS011;10495;50.922;4.760;2023-01-08T13:08:55;2.87;;;1.20;;
20671;SDS011;10495;50.922;4.760;2023-01-08T13:11:29;9.00;;;1.30;;
20671;SDS011;10495;50.922;4.760;2023-01-08T13:14:03;4.70;;;1.73;;
20671;SDS011;10495;50.922;4.760;2023-01-08T13:16:35;3.00;;;1.20;;
20671;SDS011;10495;50.922;4.760;2023-01-08T13:19:06;3.23;;;1.57;;
20671;SDS011;10495;50.922;4.760;2023-01-08T13:21:50;1.97;;;0.87;;
20671;SDS011;10495;50.922;4.760;2023-01-08T13:24:28;3.03;;;1.20;;
20671;SDS011;10495;50.922;4.760;2023-01-08T13:29:42;2.27;;;1.10;;
20671;SDS011;10495;50.922;4.760;2023-01-08T13:37:41;4.63;;;1.30;;
20671;SDS011;10495;50.922;4.760;2023-01-08T13:43:02;3.70;;;1.10;;
20671;SDS011;10495;50.922;4.760;2023-01-08T13:45:39;2.43;;;1.10;;
20671;SDS011;10495;50.922;4.760;2023-01-08T13:48:18;3.03;;;1.20;;
20671;SDS011;10495;50.922;4.760;2023-01-08T13:50:49;2.17;;;1.40;;
20671;SDS011;10495;50.922;4.760;2023-01-08T13:53:15;7.37;;;1.30;;
20671;SDS011;10495;50.922;4.760;2023-01-08T13:55:42;3.73;;;1.40;;
20671;SDS011;10495;50.922;4.760;2023-01-08T13:58:36;6.60;;;1.27;;
20671;SDS011;10495;50.922;4.760;2023-01-08T14:01:15;1.83;;;1.23;;
20671;SDS011;10495;50.922;4.760;2023-01-08T14:03:45;5.13;;;1.27;;
20671;SDS011;10495;50.922;4.760;2023-01-08T14:06:17;5.63;;;1.57;;
20671;SDS011;10495;50.922;4.760;2023-01-08T14:08:49;4.43;;;1.17;;
20671;SDS011;10495;50.922;4.760;2023-01-08T14:14:01;6.03;;;1.57;;
20671;SDS011;10495;50.922;4.760;2023-01-08T14:16:26;4.57;;;1.20;;
20671;SDS011;10495;50.922;4.760;2023-01-08T14:18:52;3.27;;;1.10;;
20671;SDS011;10495;50.922;4.760;2023-01-08T14:21:24;4.07;;;1.33;;
20671;SDS011;10495;50.922;4.760;2023-01-08T14:23:49;5.33;;;1.27;;
20671;SDS011;10495;50.922;4.760;2023-01-08T14:26:38;6.33;;;1.20;;
20671;SDS011;10495;50.922;4.760;2023-01-08T14:29:09;2.63;;;1.20;;
20671;SDS011;10495;50.922;4.760;2023-01-08T14:31:47;2.80;;;0.93;;
20671;SDS011;10495;50.922;4.760;2023-01-08T14:34:15;2.17;;;1.40;;
20671;SDS011;10495;50.922;4.760;2023-01-08T14:36:43;3.30;;;0.93;;
20671;SDS011;10495;50.922;4.760;2023-01-08T14:39:10;4.00;;;1.50;;
20671;SDS011;10495;50.922;4.760;2023-01-08T14:41:36;3.17;;;1.43;;
20671;SDS011;10495;50.922;4.760;2023-01-08T14:44:24;4.97;;;1.33;;
20671;SDS011;10495;50.922;4.760;2023-01-08T14:46:51;1.80;;;1.23;;
20671;SDS011;10495;50.922;4.760;2023-01-08T14:49:19;6.10;;;2.43;;
20671;SDS011;10495;50.922;4.760;2023-01-08T14:51:49;4.00;;;1.70;;
20671;SDS011;10495;50.922;4.760;2023-01-08T14:54:22;4.40;;;1.10;;
20671;SDS011;10495;50.922;4.760;2023-01-08T14:56:53;4.67;;;2.43;;
20671;SDS011;10495;50.922;4.760;2023-01-08T14:59:24;2.30;;;1.30;;
20671;SDS011;10495;50.922;4.760;2023-01-08T15:01:55;5.33;;;1.57;;
20671;SDS011;10495;50.922;4.760;2023-01-08T15:04:23;3.67;;;1.50;;
20671;SDS011;10495;50.922;4.760;2023-01-08T15:06:50;3.63;;;2.10;;
20671;SDS011;10495;50.922;4.760;2023-01-08T15:09:30;5.97;;;1.67;;
20671;SDS011;10495;50.922;4.760;2023-01-08T15:11:58;4.70;;;1.70;;
20671;SDS011;10495;50.922;4.760;2023-01-08T15:14:26;2.60;;;1.10;;
20671;SDS011;10495;50.922;4.760;2023-01-08T15:16:53;5.73;;;1.40;;
20671;SDS011;10495;50.922;4.760;2023-01-08T15:19:24;7.17;;;2.03;;
20671;SDS011;10495;50.922;4.760;2023-01-08T15:21:53;5.87;;;1.80;;
20671;SDS011;10495;50.922;4.760;2023-01-08T15:24:33;3.43;;;1.40;;
20671;SDS011;10495;50.922;4.760;2023-01-08T15:27:00;6.87;;;1.23;;
20671;SDS011;10495;50.922;4.760;2023-01-08T15:29:37;6.00;;;1.70;;
20671;SDS011;10495;50.922;4.760;2023-01-08T15:34:39;3.87;;;1.60;;
20671;SDS011;10495;50.922;4.760;2023-01-08T15:37:09;7.27;;;1.57;;
20671;SDS011;10495;50.922;4.760;2023-01-08T15:39:35;5.13;;;2.30;;
20671;SDS011;10495;50.922;4.760;2023-01-08T15:42:22;4.03;;;1.40;;
20671;SDS011;10495;50.922;4.760;2023-01-08T15:45:20;4.83;;;1.40;;
20671;SDS011;10495;50.922;4.760;2023-01-08T15:47:47;4.37;;;1.90;;
20671;SDS011;10495;50.922;4.760;2023-01-08T15:50:13;12.03;;;4.63;;
20671;SDS011;10495;50.922;4.760;2023-01-08T15:52:39;9.87;;;3.50;;
20671;SDS011;10495;50.922;4.760;2023-01-08T15:55:08;6.70;;;2.40;;
20671;SDS011;10495;50.922;4.760;2023-01-08T15:57:39;8.57;;;2.63;;
20671;SDS011;10495;50.922;4.760;2023-01-08T16:00:05;4.33;;;1.50;;
20671;SDS011;10495;50.922;4.760;2023-01-08T16:02:38;2.73;;;1.20;;
20671;SDS011;10495;50.922;4.760;2023-01-08T16:05:05;6.23;;;1.70;;
20671;SDS011;10495;50.922;4.760;2023-01-08T16:07:31;3.17;;;1.37;;
20671;SDS011;10495;50.922;4.760;2023-01-08T16:09:57;6.40;;;1.57;;
20671;SDS011;10495;50.922;4.760;2023-01-08T16:12:22;4.97;;;3.33;;
20671;SDS011;10495;50.922;4.760;2023-01-08T16:14:48;3.50;;;1.83;;
20671;SDS011;10495;50.922;4.760;2023-01-08T16:17:13;6.93;;;1.80;;
20671;SDS011;10495;50.922;4.760;2023-01-08T16:19:39;4.47;;;1.57;;
20671;SDS011;10495;50.922;4.760;2023-01-08T16:22:04;5.67;;;1.83;;
20671;SDS011;10495;50.922;4.760;2023-01-08T16:24:30;6.83;;;2.17;;